createdAt,value
2023-02-28T00:01:34.312Z,4.90
2023-02-28T00:04:02.707Z,4.40
2023-02-28T00:06:31.191Z,5.30
2023-02-28T00:09:02.763Z,7.13
2023-02-28T00:11:31.504Z,4.93
2023-02-28T00:14:00.461Z,4.78
2023-02-28T00:16:30.233Z,6.05
2023-02-28T00:18:58.709Z,5.82
2023-02-28T00:21:27.475Z,5.15
2023-02-28T00:23:56.136Z,7.43
2023-02-28T00:26:24.522Z,6.03
2023-02-28T00:28:54.633Z,6.93
2023-02-28T00:31:24.718Z,5.70
2023-02-28T00:33:57.100Z,6.22
2023-02-28T00:36:25.499Z,5.93
2023-02-28T00:38:53.818Z,7.40
2023-02-28T00:41:22.230Z,5.93
2023-02-28T00:43:50.574Z,4.93
2023-02-28T00:46:19.197Z,7.68
2023-02-28T00:48:47.547Z,5.75
2023-02-28T00:51:18.072Z,5.85
2023-02-28T00:53:46.400Z,6.35
2023-02-28T00:56:14.719Z,6.28
2023-02-28T00:58:43.091Z,7.65
2023-02-28T01:01:11.500Z,7.35
2023-02-28T01:03:40.179Z,8.32
2023-02-28T01:06:08.636Z,7.97
2023-02-28T01:08:38.232Z,7.13
2023-02-28T01:11:10.955Z,7.40
2023-02-28T01:13:48.046Z,6.07
2023-02-28T01:16:16.564Z,7.15
2023-02-28T01:18:44.861Z,7.22
2023-02-28T01:21:14.324Z,7.35
2023-02-28T01:23:44.113Z,6.47
2023-02-28T01:26:14.443Z,7.63
2023-02-28T01:28:42.904Z,7.13
2023-02-28T01:31:11.695Z,8.13
2023-02-28T01:33:40.502Z,6.47
2023-02-28T01:36:10.336Z,8.85
2023-02-28T01:38:38.679Z,5.95
2023-02-28T01:41:08.990Z,7.13
2023-02-28T01:43:52.227Z,8.07
2023-02-28T01:46:20.626Z,7.65
2023-02-28T01:48:50.751Z,9.95
2023-02-28T01:51:21.202Z,8.90
2023-02-28T01:53:51.852Z,7.05
2023-02-28T01:56:26.358Z,8.23
2023-02-28T01:58:55.689Z,7.85
2023-02-28T02:01:26.562Z,6.63
2023-02-28T02:03:57.063Z,6.18
2023-02-28T02:06:28.750Z,7.45
2023-02-28T02:08:57.071Z,6.57
2023-02-28T02:11:30.713Z,6.18
2023-02-28T02:14:09.036Z,8.90
2023-02-28T02:16:48.466Z,5.88
2023-02-28T02:19:30.227Z,6.88
2023-02-28T02:22:16.115Z,6.85
2023-02-28T02:24:59.376Z,7.60
2023-02-28T02:27:35.011Z,6.13
2023-02-28T02:30:21.894Z,9.13
2023-02-28T02:33:00.596Z,7.00
2023-02-28T02:35:33.407Z,6.53
2023-02-28T02:38:05.000Z,6.18
2023-02-28T02:40:36.147Z,5.88
2023-02-28T02:43:06.751Z,7.40
2023-02-28T02:45:36.820Z,6.68
2023-02-28T02:48:06.616Z,5.95
2023-02-28T02:50:37.977Z,7.40
2023-02-28T02:53:06.918Z,6.15
2023-02-28T02:55:41.588Z,7.15
2023-02-28T02:58:13.079Z,4.93
2023-02-28T03:00:45.104Z,6.28
2023-02-28T03:03:13.808Z,6.55
2023-02-28T03:05:45.190Z,5.95
2023-02-28T03:08:13.675Z,7.57
2023-02-28T03:10:43.625Z,7.88
2023-02-28T03:13:22.193Z,7.13
2023-02-28T03:16:00.775Z,6.07
2023-02-28T03:18:34.786Z,5.88
2023-02-28T03:21:09.388Z,6.30
2023-02-28T03:23:45.274Z,7.90
2023-02-28T03:26:16.612Z,6.13
2023-02-28T03:28:47.345Z,6.57
2023-02-28T03:31:19.946Z,7.50
2023-02-28T03:33:55.549Z,5.45
2023-02-28T03:36:26.926Z,6.65
2023-02-28T03:38:57.609Z,6.65
2023-02-28T03:41:28.508Z,9.52
2023-02-28T03:43:59.299Z,6.40
2023-02-28T03:46:30.986Z,7.75
2023-02-28T03:49:12.043Z,6.88
2023-02-28T03:51:44.367Z,5.28
2023-02-28T03:54:15.840Z,6.30
2023-02-28T03:56:46.864Z,6.97
2023-02-28T03:59:17.349Z,7.57
2023-02-28T04:01:46.789Z,7.22
2023-02-28T04:04:15.718Z,5.38
2023-02-28T04:06:45.980Z,6.10
2023-02-28T04:09:15.940Z,7.30
2023-02-28T04:11:45.136Z,8.45
2023-02-28T04:14:16.073Z,6.95
2023-02-28T04:16:44.854Z,8.73
2023-02-28T04:19:13.958Z,7.75
2023-02-28T04:21:43.972Z,7.55
2023-02-28T04:24:15.446Z,6.60
2023-02-28T04:26:45.437Z,5.70
2023-02-28T04:29:14.398Z,6.68
2023-02-28T04:31:42.941Z,6.75
2023-02-28T04:34:11.372Z,8.93
2023-02-28T04:36:39.723Z,9.35
2023-02-28T04:39:08.052Z,7.30
2023-02-28T04:41:37.744Z,6.30
2023-02-28T04:44:06.227Z,7.57
2023-02-28T04:46:34.636Z,6.00
2023-02-28T04:49:03.017Z,8.23
2023-02-28T04:51:31.696Z,5.82
2023-02-28T04:54:00.183Z,5.57
2023-02-28T04:56:28.513Z,5.32
2023-02-28T04:58:58.189Z,5.65
2023-02-28T05:01:28.191Z,6.38
2023-02-28T05:03:57.790Z,7.47
2023-02-28T05:06:26.765Z,8.98
2023-02-28T05:08:59.299Z,7.25
2023-02-28T05:11:48.185Z,4.40
2023-02-28T05:14:18.322Z,5.65
2023-02-28T05:16:46.667Z,4.43
2023-02-28T05:19:14.979Z,5.53
2023-02-28T05:21:45.798Z,7.45
2023-02-28T05:24:14.535Z,4.95
2023-02-28T05:26:44.295Z,5.05
2023-02-28T05:29:13.090Z,4.55
2023-02-28T05:31:42.877Z,4.63
2023-02-28T05:34:12.154Z,4.63
2023-02-28T11:23:14.082Z,7.60
2023-02-28T11:25:42.523Z,6.00
2023-02-28T11:28:25.743Z,7.50
2023-02-28T11:31:03.006Z,9.15
2023-02-28T11:33:33.877Z,9.15
2023-02-28T11:36:05.066Z,8.73
2023-02-28T11:38:36.872Z,8.80
2023-02-28T11:41:10.101Z,8.77
2023-02-28T11:43:43.597Z,9.80
2023-02-28T11:46:19.033Z,9.48
2023-02-28T11:48:54.216Z,8.02
2023-02-28T11:51:24.466Z,7.60
2023-02-28T11:54:04.617Z,7.25
2023-02-28T11:56:36.418Z,8.25
2023-02-28T11:59:11.473Z,7.57
2023-02-28T12:01:44.084Z,9.32
2023-02-28T12:04:24.248Z,7.10
2023-02-28T12:06:57.579Z,8.75
2023-02-28T12:09:34.461Z,7.97
2023-02-28T12:12:06.759Z,7.70
2023-02-28T12:14:52.360Z,7.25
2023-02-28T12:17:33.466Z,8.75
2023-02-28T12:20:07.183Z,8.27
2023-02-28T12:22:38.885Z,7.90
2023-02-28T12:25:24.752Z,8.25
2023-02-28T12:27:54.984Z,8.18
2023-02-28T12:30:25.212Z,9.20
2023-02-28T12:32:56.449Z,11.02
2023-02-28T12:35:27.757Z,9.13
2023-02-28T12:37:59.330Z,7.68
2023-02-28T12:40:31.641Z,9.93
2023-02-28T12:43:02.575Z,8.70
2023-02-28T12:45:38.698Z,8.98
2023-02-28T12:48:09.098Z,9.30
2023-02-28T12:50:37.722Z,9.43
2023-02-28T12:53:09.156Z,9.30
2023-02-28T12:55:43.526Z,9.10
2023-02-28T12:58:16.142Z,7.95
2023-02-28T13:00:50.218Z,9.38
2023-02-28T13:03:36.045Z,11.05
2023-02-28T13:06:22.979Z,9.00
2023-02-28T13:09:03.649Z,9.55
2023-02-28T13:11:35.291Z,8.82
2023-02-28T13:14:05.075Z,10.05
2023-02-28T13:16:56.030Z,7.68
2023-02-28T13:19:25.224Z,8.95
2023-02-28T13:21:54.148Z,9.88
2023-02-28T13:24:40.186Z,8.27
2023-02-28T13:27:26.163Z,8.30
2023-02-28T13:29:55.288Z,9.02
2023-02-28T13:32:34.856Z,8.82
2023-02-28T13:35:36.681Z,10.50
2023-02-28T13:38:32.008Z,10.82
2023-02-28T13:41:15.157Z,10.82
2023-02-28T13:44:05.559Z,11.23
2023-02-28T13:46:34.516Z,10.20
2023-02-28T13:49:17.721Z,9.75
2023-02-28T13:51:47.849Z,8.25
2023-02-28T13:54:21.527Z,9.10
2023-02-28T13:56:52.879Z,9.75
2023-02-28T13:59:28.240Z,9.98
2023-02-28T14:02:05.726Z,9.48
2023-02-28T14:04:47.096Z,8.98
2023-02-28T14:07:20.151Z,10.02
2023-02-28T14:09:49.616Z,10.80
2023-02-28T14:12:36.363Z,9.00
2023-02-28T14:15:06.870Z,9.07
2023-02-28T14:17:35.399Z,9.93
2023-02-28T14:20:04.456Z,8.10
2023-02-28T14:22:43.467Z,11.07
2023-02-28T14:25:14.017Z,8.38
2023-02-28T14:27:47.655Z,8.98
2023-02-28T14:30:38.858Z,9.98
2023-02-28T14:33:14.416Z,12.23
2023-02-28T14:35:46.946Z,9.52
2023-02-28T14:38:17.671Z,10.77
2023-02-28T14:40:47.607Z,10.25
2023-02-28T14:43:22.046Z,9.13
2023-02-28T14:45:53.947Z,11.70
2023-02-28T14:48:25.030Z,10.32
2023-02-28T14:50:55.716Z,11.88
2023-02-28T14:53:25.159Z,10.52
2023-02-28T14:55:53.880Z,10.88
2023-02-28T14:58:26.623Z,9.57
2023-02-28T15:00:57.768Z,9.35
2023-02-28T15:03:27.619Z,11.05
2023-02-28T15:05:57.029Z,10.38
2023-02-28T15:08:26.878Z,12.18
2023-02-28T15:10:56.725Z,11.10
2023-02-28T15:13:26.147Z,10.70
2023-02-28T15:16:05.015Z,9.50
2023-02-28T15:18:35.942Z,8.98
2023-02-28T15:21:06.282Z,9.88
2023-02-28T15:23:36.077Z,11.02
2023-02-28T15:26:05.063Z,11.48
2023-02-28T15:28:33.421Z,8.98
2023-02-28T15:31:04.071Z,12.00
2023-02-28T15:33:33.276Z,9.50
2023-02-28T15:36:16.082Z,12.43
2023-02-28T15:38:44.991Z,11.40
2023-02-28T15:41:24.273Z,10.73
2023-02-28T15:44:12.583Z,9.23
2023-02-28T15:46:42.410Z,9.70
2023-02-28T15:49:19.462Z,11.07
2023-02-28T15:51:47.801Z,10.38
2023-02-28T15:54:18.682Z,7.82
2023-02-28T15:56:47.998Z,12.35
2023-02-28T15:59:18.427Z,9.90
2023-02-28T16:01:50.762Z,9.38
2023-02-28T16:04:20.534Z,11.57
2023-02-28T16:06:49.953Z,9.57
2023-02-28T16:09:18.874Z,10.38
2023-02-28T16:11:48.174Z,10.70
2023-02-28T16:14:18.420Z,9.60
2023-02-28T16:16:49.473Z,11.20
2023-02-28T16:19:17.979Z,9.70
2023-02-28T16:21:46.275Z,10.25
2023-02-28T16:24:14.589Z,11.90
2023-02-28T16:26:43.735Z,11.05
2023-02-28T16:29:15.484Z,11.00
2023-02-28T16:31:43.862Z,12.43
2023-02-28T16:34:13.885Z,10.70
2023-02-28T16:36:42.403Z,10.63
2023-02-28T16:39:10.661Z,11.23
2023-02-28T16:41:38.990Z,10.88
2023-02-28T16:44:12.773Z,9.00
2023-02-28T16:46:41.150Z,9.95
2023-02-28T16:49:12.997Z,18.42
2023-02-28T16:51:42.658Z,8.75
2023-02-28T16:54:11.058Z,11.35
2023-02-28T16:56:40.953Z,9.65
2023-02-28T16:59:11.144Z,9.35
2023-02-28T17:01:39.664Z,14.32
2023-02-28T17:04:08.339Z,10.57
2023-02-28T17:06:36.796Z,11.48
2023-02-28T17:09:09.580Z,9.70
2023-02-28T17:11:38.047Z,8.43
2023-02-28T17:14:06.380Z,9.55
2023-02-28T17:16:35.502Z,12.50
2023-02-28T17:19:04.836Z,18.10
2023-02-28T23:22:28.628Z,18.48
2023-02-28T23:24:56.964Z,18.65
2023-02-28T23:27:25.194Z,19.65
2023-02-28T23:29:53.781Z,17.10
2023-02-28T23:32:22.212Z,21.33
2023-02-28T23:34:50.541Z,18.33
2023-02-28T23:37:18.851Z,17.10
2023-02-28T23:39:48.750Z,15.73
2023-02-28T23:42:17.016Z,15.95
2023-02-28T23:44:45.281Z,16.50
2023-02-28T23:47:14.259Z,21.13
2023-02-28T23:49:42.488Z,17.42
2023-02-28T23:52:11.780Z,18.10
2023-02-28T23:54:40.124Z,17.42
2023-02-28T23:57:09.877Z,17.33
2023-02-28T23:59:38.176Z,17.13
